New Haven MSSI Station
| Date/Time | Air Temperature [°F] | Rel. Humidity [%] | Dew Point [°F] | Precipitation Type Lufft [logic] | Precipitation Intensity [mm/h] | Wind Direction [°] | Wind Speed (act) [mph] | Wind Speed (max) [mph] | Visibility [m] | Wind Chill Temperature [°F] |
| 5/7/2026 12:09:00 AM | 43.85 | 95.31 | 42.60 | no precipitation (0.00) | 0.00 | 0.00 | 0.00 | 0.80 | 3000.00 | 42.56 |
| 5/7/2026 12:19:00 AM | 43.85 | 95.37 | 42.61 | no precipitation (0.00) | 0.00 | 0.00 | 0.00 | 0.79 | 3000.00 | 42.67 |
| 5/7/2026 12:29:00 AM | 43.69 | 95.37 | 42.46 | no precipitation (0.00) | 0.00 | 0.00 | 0.00 | 0.00 | 3000.00 | 42.53 |
| 5/7/2026 12:39:00 AM | 43.70 | 95.34 | 42.45 | no precipitation (0.00) | 0.00 | 0.00 | 0.00 | 0.72 | 3000.00 | 42.46 |
| 5/7/2026 12:49:00 AM | 43.85 | 95.46 | 42.63 | no precipitation (0.00) | 0.00 | 0.00 | 0.00 | 0.00 | 3000.00 | 42.58 |
| 5/7/2026 1:00:00 AM | 44.16 | 95.57 | 42.98 | no precipitation (0.00) | 0.00 | 261.12 | 0.70 | 0.82 | 3000.00 | 42.79 |
| 5/7/2026 1:09:00 AM | 44.22 | 95.55 | 43.02 | no precipitation (0.00) | 0.00 | 253.98 | 1.08 | 1.28 | 3000.00 | 42.98 |
| 5/7/2026 1:20:00 AM | 44.00 | 95.48 | 42.79 | no precipitation (0.00) | 0.00 | 0.00 | 0.00 | 0.00 | 3000.00 | 42.91 |
| 5/7/2026 1:30:00 AM | 43.84 | 95.46 | 42.63 | no precipitation (0.00) | 0.00 | 0.00 | 0.00 | 0.00 | 3000.00 | 42.72 |
| 5/7/2026 1:40:00 AM | 43.71 | 95.34 | 42.46 | no precipitation (0.00) | 0.00 | 178.21 | 0.71 | 0.86 | 3000.00 | 42.64 |
| 5/7/2026 1:49:00 AM | 43.53 | 95.46 | 42.32 | no precipitation (0.00) | 0.00 | 0.00 | 0.00 | 0.00 | 3000.00 | 42.36 |
| 5/7/2026 1:59:00 AM | 43.58 | 95.47 | 42.37 | no precipitation (0.00) | 0.00 | 0.00 | 0.00 | 0.00 | 3000.00 | 42.27 |
| 5/7/2026 2:09:00 AM | 43.31 | 95.30 | 42.05 | no precipitation (0.00) | 0.00 | 0.00 | 0.00 | 0.00 | 3000.00 | 42.25 |
| 5/7/2026 2:19:00 AM | 43.23 | 95.35 | 41.99 | no precipitation (0.00) | 0.00 | 198.76 | 0.80 | 1.07 | 3000.00 | 42.01 |
| 5/7/2026 2:29:00 AM | 43.08 | 95.35 | 41.84 | no precipitation (0.00) | 0.00 | 0.00 | 0.00 | 0.72 | 3000.00 | 41.78 |
| 5/7/2026 2:40:00 AM | 43.26 | 95.47 | 42.05 | no precipitation (0.00) | 0.00 | 256.18 | 0.86 | 1.11 | 3000.00 | 41.74 |
| 5/7/2026 2:49:00 AM | 43.42 | 95.47 | 42.21 | no precipitation (0.00) | 0.00 | 0.00 | 0.00 | 1.08 | 3000.00 | 42.00 |
| 5/7/2026 2:59:00 AM | 43.41 | 95.44 | 42.19 | no precipitation (0.00) | 0.00 | 217.79 | 1.11 | 1.90 | 3000.00 | 42.09 |
| 5/7/2026 3:09:00 AM | 43.57 | 95.53 | 42.37 | no precipitation (0.00) | 0.00 | 0.00 | 0.00 | 0.98 | 3000.00 | 42.26 |
| 5/7/2026 3:19:00 AM | 43.56 | 95.58 | 42.38 | no precipitation (0.00) | 0.00 | 0.00 | 0.00 | 0.00 | 3000.00 | 42.26 |
| 5/7/2026 3:30:00 AM | 43.71 | 95.67 | 42.56 | no precipitation (0.00) | 0.00 | 0.00 | 0.00 | 0.00 | 3000.00 | 42.37 |
| 5/7/2026 3:39:00 AM | 43.82 | 95.63 | 42.65 | no precipitation (0.00) | 0.00 | 0.00 | 0.00 | 0.00 | 3000.00 | 42.44 |
| 5/7/2026 3:49:00 AM | 43.70 | 95.58 | 42.51 | no precipitation (0.00) | 0.00 | 0.00 | 0.00 | 0.89 | 3000.00 | 42.46 |
| 5/7/2026 3:59:00 AM | 43.54 | 95.52 | 42.34 | no precipitation (0.00) | 0.00 | 0.00 | 0.00 | 0.00 | 3000.00 | 42.26 |
| 5/7/2026 4:10:00 AM | 43.86 | 95.63 | 42.69 | no precipitation (0.00) | 0.00 | 0.00 | 0.00 | 0.71 | 3000.00 | 42.44 |
| 5/7/2026 4:20:00 AM | 43.55 | 95.55 | 42.37 | no precipitation (0.00) | 0.00 | 0.00 | 0.00 | 0.69 | 3000.00 | 42.44 |
| 5/7/2026 4:30:00 AM | 43.54 | 95.61 | 42.37 | no precipitation (0.00) | 0.00 | 0.00 | 0.00 | 0.00 | 3000.00 | 42.20 |
| 5/7/2026 4:39:00 AM | 43.70 | 95.61 | 42.53 | no precipitation (0.00) | 0.00 | 0.00 | 0.00 | 0.00 | 3000.00 | 42.27 |
| 5/7/2026 4:49:00 AM | 43.55 | 95.55 | 42.36 | no precipitation (0.00) | 0.00 | 0.00 | 0.00 | 1.06 | 3000.00 | 42.20 |
| 5/7/2026 4:59:00 AM | 43.55 | 95.58 | 42.37 | no precipitation (0.00) | 0.00 | 0.00 | 0.00 | 1.24 | 3000.00 | 42.11 |
| 5/7/2026 5:10:00 AM | 43.72 | 95.58 | 42.54 | no precipitation (0.00) | 0.00 | 0.00 | 0.00 | 1.38 | 3000.00 | 42.28 |
| 5/7/2026 5:19:00 AM | 43.87 | 95.61 | 42.70 | no precipitation (0.00) | 0.00 | 202.83 | 2.60 | 3.61 | 3000.00 | 42.47 |
| 5/7/2026 5:29:00 AM | 43.87 | 95.58 | 42.69 | no precipitation (0.00) | 0.00 | 227.15 | 1.25 | 2.04 | 3000.00 | 42.60 |
| 5/7/2026 5:40:00 AM | 43.87 | 95.52 | 42.67 | no precipitation (0.00) | 0.00 | 245.08 | 1.32 | 2.21 | 3000.00 | 42.61 |
| 5/7/2026 5:49:00 AM | 43.87 | 95.52 | 42.67 | no precipitation (0.00) | 0.00 | 265.57 | 1.23 | 2.18 | 3000.00 | 42.60 |
| 5/7/2026 6:00:00 AM | 43.86 | 95.49 | 42.66 | no precipitation (0.00) | 0.00 | 255.95 | 1.47 | 1.92 | 3000.00 | 42.60 |
| 5/7/2026 6:10:00 AM | 43.86 | 95.49 | 42.65 | no precipitation (0.00) | 0.00 | 0.00 | 0.00 | 1.29 | 3000.00 | 42.60 |
| 5/7/2026 6:20:00 AM | 43.85 | 95.49 | 42.65 | no precipitation (0.00) | 0.00 | 0.00 | 0.00 | 2.40 | 3000.00 | 42.57 |
| 5/7/2026 6:30:00 AM | 43.85 | 95.52 | 42.65 | no precipitation (0.00) | 0.00 | 0.00 | 0.00 | 1.15 | 3000.00 | 42.57 |
| 5/7/2026 6:39:00 AM | 44.01 | 95.46 | 42.80 | no precipitation (0.00) | 0.00 | 204.25 | 0.70 | 3.26 | 3000.00 | 42.67 |
| 5/7/2026 6:49:00 AM | 43.87 | 95.43 | 42.65 | no precipitation (0.00) | 0.00 | 98.00 | 0.79 | 1.61 | 3000.00 | 42.70 |
| 5/7/2026 6:59:00 AM | 43.68 | 95.40 | 42.45 | no precipitation (0.00) | 0.00 | 279.88 | 1.22 | 1.56 | 3000.00 | 42.53 |
| 5/7/2026 7:09:00 AM | 43.35 | 95.28 | 42.09 | no precipitation (0.00) | 0.00 | 0.00 | 0.00 | 2.91 | 3000.00 | 42.10 |
| 5/7/2026 7:19:00 AM | 43.04 | 95.17 | 41.75 | no precipitation (0.00) | 0.00 | 0.00 | 0.00 | 2.15 | 3000.00 | 41.74 |
| 5/7/2026 7:30:00 AM | 42.54 | 94.91 | 41.19 | no precipitation (0.00) | 0.00 | 214.70 | 1.35 | 2.15 | 3000.00 | 41.33 |
| 5/7/2026 7:39:00 AM | 43.20 | 95.11 | 41.89 | no precipitation (0.00) | 0.00 | 0.00 | 0.00 | 1.77 | 3000.00 | 41.33 |
| 5/7/2026 7:50:00 AM | 43.03 | 94.81 | 41.64 | no precipitation (0.00) | 0.00 | 236.48 | 0.95 | 2.71 | 3000.00 | 41.95 |
| 5/7/2026 8:00:00 AM | 43.47 | 94.89 | 42.11 | no precipitation (0.00) | 0.00 | 206.34 | 1.04 | 1.73 | 3000.00 | 41.97 |
| 5/7/2026 8:09:00 AM | 43.78 | 94.86 | 42.40 | no precipitation (0.00) | 0.00 | 0.00 | 0.00 | 1.11 | 3000.00 | 42.31 |
| 5/7/2026 8:19:00 AM | 44.79 | 94.74 | 43.38 | no precipitation (0.00) | 0.00 | 211.62 | 1.23 | 2.26 | 3000.00 | 42.98 |
| 5/7/2026 8:29:00 AM | 45.85 | 94.48 | 44.36 | no precipitation (0.00) | 0.00 | 0.00 | 0.00 | 0.90 | 3000.00 | 44.40 |
| 5/7/2026 8:39:00 AM | 45.83 | 93.88 | 44.17 | no precipitation (0.00) | 0.00 | 0.00 | 0.00 | 0.00 | 3000.00 | 45.15 |
| 5/7/2026 8:49:00 AM | 45.07 | 93.73 | 43.37 | no precipitation (0.00) | 0.00 | 285.71 | 0.89 | 1.49 | 3000.00 | 44.34 |
| 5/7/2026 9:00:00 AM | 45.73 | 93.84 | 44.06 | no precipitation (0.00) | 0.00 | 206.03 | 1.46 | 1.94 | 3000.00 | 44.10 |
| 5/7/2026 9:09:00 AM | 46.12 | 93.26 | 44.28 | no precipitation (0.00) | 0.00 | 0.00 | 0.00 | 1.89 | 3000.00 | 44.87 |
| 5/7/2026 9:20:00 AM | 47.28 | 92.34 | 45.17 | no precipitation (0.00) | 0.00 | 0.00 | 0.00 | 1.26 | 3000.00 | 46.27 |
| 5/7/2026 9:30:00 AM | 48.19 | 91.49 | 45.83 | no precipitation (0.00) | 0.00 | 0.00 | 0.00 | 0.87 | Error 0x111 - sensor error | 47.02 |
| 5/7/2026 9:40:00 AM | 47.81 | 89.35 | 44.82 | no precipitation (0.00) | 0.00 | 0.00 | 0.00 | 1.40 | 3000.00 | 47.05 |
| 5/7/2026 9:49:00 AM | 48.09 | 86.27 | 44.19 | no precipitation (0.00) | 0.00 | 238.63 | 0.79 | 3.10 | 3000.00 | 47.21 |
| 5/7/2026 10:00:00 AM | 49.11 | 81.74 | 43.77 | no precipitation (0.00) | 0.00 | 0.00 | 0.00 | 1.61 | 3000.00 | 47.82 |
| 5/7/2026 10:09:00 AM | 49.81 | 76.24 | 42.63 | no precipitation (0.00) | 0.00 | 206.16 | 2.66 | 4.52 | 3000.00 | 49.04 |
| 5/7/2026 10:20:00 AM | 50.95 | 71.55 | 42.07 | no precipitation (0.00) | 0.00 | 0.00 | 0.00 | 2.08 | 3000.00 | 49.92 |
| 5/7/2026 10:30:00 AM | 52.35 | 65.44 | 41.10 | no precipitation (0.00) | 0.00 | 143.11 | 1.50 | 2.00 | Error 0x111 - sensor error | 51.75 |
| 5/7/2026 10:40:00 AM | 54.10 | 61.00 | 40.94 | no precipitation (0.00) | 0.00 | 255.85 | 1.95 | 4.42 | 3000.00 | 53.51 |
| 5/7/2026 10:49:00 AM | 54.64 | 53.86 | 38.25 | no precipitation (0.00) | 0.00 | 231.24 | 2.01 | 4.54 | 3000.00 | 54.38 |
| 5/7/2026 10:59:00 AM | 55.08 | 51.64 | 37.58 | no precipitation (0.00) | 0.00 | 210.80 | 3.00 | 8.46 | 3000.00 | 54.70 |
| 5/7/2026 11:10:00 AM | 55.09 | 45.88 | 34.59 | no precipitation (0.00) | 0.00 | 210.27 | 0.93 | 2.14 | 3000.00 | 54.87 |
| 5/7/2026 11:20:00 AM | 55.86 | 41.85 | 32.99 | no precipitation (0.00) | 0.00 | 0.00 | 0.00 | 2.86 | 3000.00 | 55.84 |
| 5/7/2026 11:29:00 AM | 56.06 | 40.28 | 32.22 | no precipitation (0.00) | 0.00 | 0.00 | 0.00 | 1.40 | 3000.00 | 56.00 |
| 5/7/2026 11:40:00 AM | 56.82 | 38.99 | 32.10 | no precipitation (0.00) | 0.00 | 93.11 | 1.44 | 2.37 | 3000.00 | 56.75 |
| 5/7/2026 11:49:00 AM | 56.65 | 38.50 | 31.63 | no precipitation (0.00) | 0.00 | 0.00 | 0.00 | 5.07 | 3000.00 | 57.15 |
| 5/7/2026 11:59:00 AM | 56.30 | 41.44 | 33.14 | no precipitation (0.00) | 0.00 | 191.69 | 1.87 | 6.21 | 3000.00 | 56.16 |
| 5/7/2026 12:10:00 PM | 57.87 | 41.31 | 34.48 | no precipitation (0.00) | 0.00 | 237.05 | 2.21 | 4.05 | 3000.00 | 56.88 |
| 5/7/2026 12:19:00 PM | 58.67 | 39.23 | 33.90 | no precipitation (0.00) | 0.00 | 198.34 | 1.84 | 4.22 | 3000.00 | 58.19 |
| 5/7/2026 12:30:00 PM | 58.38 | 37.21 | 32.33 | no precipitation (0.00) | 0.00 | 177.20 | 2.14 | 2.80 | 3000.00 | 58.89 |
| 5/7/2026 12:40:00 PM | 57.81 | 39.58 | 33.36 | no precipitation (0.00) | 0.00 | 0.00 | 0.00 | 2.73 | 3000.00 | 57.66 |
| 5/7/2026 12:49:00 PM | 59.16 | 37.30 | 33.08 | no precipitation (0.00) | 0.00 | 80.03 | 0.78 | 1.53 | 3000.00 | 58.58 |
| 5/7/2026 12:59:00 PM | 60.45 | 36.81 | 33.90 | no precipitation (0.00) | 0.00 | 272.31 | 2.67 | 3.74 | 3000.00 | 60.08 |
| 5/7/2026 1:09:00 PM | 59.36 | 35.86 | 32.28 | no precipitation (0.00) | 0.00 | 0.00 | 0.00 | 3.14 | 3000.00 | 59.63 |
| 5/7/2026 1:20:00 PM | 59.30 | 33.55 | 30.58 | no precipitation (0.00) | 0.00 | 250.81 | 0.73 | 2.00 | 3000.00 | 59.73 |
| 5/7/2026 1:30:00 PM | 57.81 | 35.75 | 30.83 | no precipitation (0.00) | 0.00 | 89.22 | 0.85 | 1.54 | 3000.00 | 58.14 |
| 5/7/2026 1:39:00 PM | 58.18 | 41.59 | 34.93 | no precipitation (0.00) | 0.00 | 208.69 | 1.00 | 1.60 | 3000.00 | 58.13 |
| 5/7/2026 1:50:00 PM | 58.80 | 37.02 | 32.57 | no precipitation (0.00) | 0.00 | 135.79 | 1.01 | 1.98 | 3000.00 | 58.66 |
| 5/7/2026 2:00:00 PM | 59.58 | 34.32 | 31.38 | no precipitation (0.00) | 0.00 | 125.03 | 1.45 | 1.89 | 3000.00 | 58.99 |
| 5/7/2026 2:10:00 PM | 57.83 | 35.56 | 30.72 | no precipitation (0.00) | 0.00 | 0.00 | 0.00 | 1.78 | 3000.00 | 58.32 |
| 5/7/2026 2:19:00 PM | 57.87 | 35.76 | 30.89 | no precipitation (0.00) | 0.00 | 0.00 | 0.00 | 1.24 | 3000.00 | 57.77 |
| 5/7/2026 2:30:00 PM | 58.60 | 35.77 | 31.54 | no precipitation (0.00) | 0.00 | 172.89 | 1.82 | 4.49 | 3000.00 | 58.21 |
| 5/7/2026 2:40:00 PM | 59.39 | 35.93 | 32.36 | no precipitation (0.00) | 0.00 | 193.93 | 1.20 | 1.88 | 3000.00 | 58.79 |
| 5/7/2026 2:49:00 PM | 59.51 | 31.47 | 29.19 | no precipitation (0.00) | 0.00 | 109.05 | 3.22 | 4.49 | 3000.00 | 59.72 |
| 5/7/2026 3:00:00 PM | 59.73 | 32.83 | 30.42 | no precipitation (0.00) | 0.00 | 159.22 | 0.86 | 2.42 | 3000.00 | 59.62 |
| 5/7/2026 3:10:00 PM | 59.37 | 33.94 | 30.92 | no precipitation (0.00) | 0.00 | 288.96 | 1.18 | 4.70 | 3000.00 | 59.49 |
| 5/7/2026 3:19:00 PM | 60.98 | 32.35 | 31.16 | no precipitation (0.00) | 0.00 | 0.00 | 0.00 | 3.40 | 3000.00 | 60.36 |
| 5/7/2026 3:30:00 PM | 59.92 | 30.18 | 28.52 | no precipitation (0.00) | 0.00 | 177.65 | 1.87 | 2.99 | 3000.00 | 60.60 |
| 5/7/2026 3:39:00 PM | 59.50 | 34.02 | 31.10 | no precipitation (0.00) | 0.00 | 0.00 | 0.00 | 1.35 | 3000.00 | 59.63 |
| 5/7/2026 3:50:00 PM | 58.96 | 35.73 | 31.83 | no precipitation (0.00) | 0.00 | 194.70 | 0.86 | 1.81 | 3000.00 | 58.76 |
| 5/7/2026 4:00:00 PM | 57.99 | 34.76 | 30.29 | no precipitation (0.00) | 0.00 | 255.18 | 0.84 | 1.99 | 3000.00 | 58.72 |
| 5/7/2026 4:10:00 PM | 57.06 | 37.25 | 31.18 | no precipitation (0.00) | 0.00 | 0.00 | 0.00 | 1.71 | 3000.00 | 57.31 |
| 5/7/2026 4:19:00 PM | 56.69 | 36.61 | 30.42 | no precipitation (0.00) | 0.00 | 265.93 | 0.70 | 1.26 | 3000.00 | 56.98 |
| 5/7/2026 4:29:00 PM | 56.12 | 39.17 | 31.58 | no precipitation (0.00) | 0.00 | 0.00 | 0.00 | 1.39 | 3000.00 | 56.51 |
| 5/7/2026 4:40:00 PM | 55.12 | 40.14 | 31.29 | no precipitation (0.00) | 0.00 | 270.85 | 1.75 | 2.14 | 3000.00 | 55.55 |
| 5/7/2026 4:50:00 PM | 54.33 | 40.81 | 30.99 | no precipitation (0.00) | 0.00 | 0.00 | 0.00 | 1.56 | 3000.00 | 54.58 |
| 5/7/2026 4:59:00 PM | 54.15 | 41.90 | 31.48 | no precipitation (0.00) | 0.00 | 262.08 | 0.75 | 1.89 | 3000.00 | 54.23 |
| 5/7/2026 5:09:00 PM | 53.99 | 41.86 | 31.31 | no precipitation (0.00) | 0.00 | 230.68 | 0.97 | 1.92 | 3000.00 | 54.04 |
| 5/7/2026 5:19:00 PM | 53.97 | 39.80 | 30.04 | no precipitation (0.00) | 0.00 | 134.63 | 0.71 | 2.43 | 3000.00 | 53.92 |
| 5/7/2026 5:30:00 PM | 54.61 | 39.94 | 30.71 | no precipitation (0.00) | 0.00 | 275.76 | 1.45 | 2.23 | 3000.00 | 54.22 |
| 5/7/2026 5:40:00 PM | 55.75 | 38.08 | 30.56 | no precipitation (0.00) | 0.00 | 279.84 | 0.73 | 1.69 | 3000.00 | 55.14 |
| 5/7/2026 5:49:00 PM | 56.28 | 37.77 | 30.83 | no precipitation (0.00) | 0.00 | 0.00 | 0.00 | 2.68 | 3000.00 | 56.19 |
| 5/7/2026 6:00:00 PM | 55.51 | 38.13 | 30.37 | no precipitation (0.00) | 0.00 | 268.79 | 2.18 | 3.16 | 3000.00 | 55.70 |
| 5/7/2026 6:09:00 PM | 55.75 | 39.07 | 31.19 | no precipitation (0.00) | 0.00 | 0.00 | 0.00 | 1.10 | 3000.00 | 55.58 |
| 5/7/2026 6:19:00 PM | 54.78 | 37.05 | 29.01 | no precipitation (0.00) | 0.00 | 0.00 | 0.00 | 1.88 | 3000.00 | 55.22 |
| 5/7/2026 6:30:00 PM | 53.62 | 38.85 | 29.14 | no precipitation (0.00) | 0.00 | 165.15 | 0.83 | 2.03 | 3000.00 | 54.06 |
| 5/7/2026 6:39:00 PM | 53.04 | 37.95 | 28.05 | no precipitation (0.00) | 0.00 | 0.00 | 0.00 | 2.93 | 3000.00 | 53.32 |
| 5/7/2026 6:50:00 PM | 52.86 | 42.18 | 30.47 | no precipitation (0.00) | 0.00 | 0.00 | 0.00 | 1.03 | 3000.00 | 52.86 |
| 5/7/2026 7:00:00 PM | 53.06 | 40.55 | 29.69 | no precipitation (0.00) | 0.00 | 0.00 | 0.00 | 0.00 | 3000.00 | 52.95 |
| 5/7/2026 7:10:00 PM | 52.86 | 40.63 | 29.55 | no precipitation (0.00) | 0.00 | 165.97 | 0.78 | 1.30 | 3000.00 | 52.94 |